Cap Bonavista — A8CH8 — position and weather

sailwx.info

Track history (hours):
 
Tides and Currents Weather Stations Pressure Air Temp Water Temp Dewpoint Dewpoint Depression Visibility Wind Speed Wind Dir Waves Ship Positions

Cap Bonavista

Last reported at 2015-Jul-13 17:33 UTC. Time now 2015-Aug-04 09:38 UTC.
Position N 09°23' W 013°44'.
Warning: this ship's position is 21 days out of date.

Length 200 m; beam 29.8 m; draft 11.6 m.

Type: Cargo ship. MMSI: 636090647.

Date/timePositionNaut miles runAvg speedWind from/ knotsBaromVisibWave heightAir tempDewpointWater temp
2015-Jul-13 17:33N 09°23' W 013°44'8 7.8
2015-Jul-13 16:33N 09°30' W 013°44'0 0.3
2015-Jul-13 15:32N 09°31' W 013°43'0 0.0
2015-Jul-13 14:32N 09°31' W 013°43'0 0.0
2015-Jul-13 13:32N 09°31' W 013°43'0 0.0
2015-Jul-13 12:32N 09°31' W 013°43'0 0.0
2015-Jul-13 11:32N 09°31' W 013°43'0 0.0
2015-Jul-13 10:32N 09°31' W 013°43'0 0.0
2015-Jul-13 09:32N 09°31' W 013°43'0 0.0
2015-Jul-13 08:32N 09°31' W 013°43'0 0.0
2015-Jul-13 07:32N 09°31' W 013°43'0 0.0
2015-Jul-13 06:32N 09°31' W 013°43'0 0.0
2015-Jul-13 05:32N 09°31' W 013°43'0 0.0
2015-Jul-13 04:32N 09°31' W 013°43'0 0.0
2015-Jul-13 03:32N 09°31' W 013°43'0 0.0
2015-Jul-13 02:32N 09°31' W 013°43'0 0.0
2015-Jul-13 01:32N 09°31' W 013°43'0 0.0
2015-Jul-13 00:32N 09°31' W 013°43'0 0.0
2015-Jul-12 23:32N 09°31' W 013°43'0 0.0
2015-Jul-12 22:08N 09°31' W 013°43'0 0.0
2015-Jul-12 21:26N 09°31' W 013°43'0 0.0
2015-Jul-12 20:23N 09°31' W 013°43'0 0.0
2015-Jul-12 19:23N 09°31' W 013°43'0 0.0
2015-Jul-12 18:32N 09°31' W 013°43'0 0.0
2015-Jul-12 17:32N 09°31' W 013°43'0 0.0
2015-Jul-12 16:32N 09°31' W 013°43'4 4.5
2015-Jul-12 15:33N 09°26' W 013°43'6 6.0
2015-Jul-12 14:31N 09°20' W 013°45'0 0.0
2015-Jul-12 13:31N 09°20' W 013°45'0 0.1
2015-Jul-12 11:31N 09°20' W 013°45'0 0.0
2015-Jul-12 10:34N 09°20' W 013°45'0 0.0
2015-Jul-12 09:25N 09°20' W 013°45'0 0.0
2015-Jul-12 08:31N 09°20' W 013°45'0 0.1
2015-Jul-12 07:31N 09°20' W 013°45'2 2.2
2015-Jul-12 06:33N 09°22' W 013°44'2 2.0
2015-Jul-12 05:33N 09°24' W 013°44'  
2015-Jul-07 22:22N 26°41' W 014°38'1618.2
2015-Jul-07 21:29N 26°54' W 014°28'1718.1
2015-Jul-07 20:33N 27°08' W 014°18'1818.0
2015-Jul-07 19:33N 27°23' W 014°06'1818.2
2015-Jul-07 18:33N 27°39' W 013°56'1818.2
2015-Jul-07 17:33N 27°55' W 013°47'1817.7
2015-Jul-07 16:33N 28°12' W 013°39'2417.6
2015-Jul-07 15:11N 28°34' W 013°28'1013.3
2015-Jul-07 14:26N 28°43' W 013°23'1213.5
2015-Jul-07 13:33N 28°53' W 013°17'1413.6
2015-Jul-07 12:30N 29°06' W 013°10'1313.5
2015-Jul-07 11:32N 29°18' W 013°03'2713.4
2015-Jul-07 09:33N 29°39' W 012°44'1313.4
2015-Jul-07 08:34N 29°49' W 012°35'1413.5
2015-Jul-07 07:33N 29°60' W 012°25'1918.6
2015-Jul-07 06:33N 30°14' W 012°11'1313.2
2015-Jul-07 05:31N 30°25' W 012°02'1413.7
2015-Jul-07 04:32N 30°36' W 011°52'1313.6
2015-Jul-07 03:33N 30°46' W 011°42'1413.7
2015-Jul-07 02:34N 30°57' W 011°32'1313.3
2015-Jul-07 01:33N 31°07' W 011°23'1313.0
2015-Jul-07 00:33N 31°17' W 011°13'1313.2
2015-Jul-06 23:33N 31°28' W 011°04'1413.6
2015-Jul-06 22:33N 31°38' W 010°54'1413.2
2015-Jul-06 21:32N 31°49' W 010°44'1313.3
2015-Jul-06 20:32N 31°59' W 010°34'1313.5
2015-Jul-06 19:33N 32°10' W 010°24'1313.6
2015-Jul-06 18:33N 32°20' W 010°14'1313.2
2015-Jul-06 17:34N 32°30' W 010°05'1313.2
2015-Jul-06 16:33N 32°40' W 009°54'1313.0
2015-Jul-06 15:33N 32°49' W 009°43'1313.1
2015-Jul-06 14:33N 32°58' W 009°32'1413.6
2015-Jul-06 13:33N 33°08' W 009°20'1413.6
2015-Jul-06 12:33N 33°18' W 009°09'1413.5
2015-Jul-06 11:32N 33°27' W 008°57'1313.5
2015-Jul-06 10:33N 33°37' W 008°46'2713.4
2015-Jul-06 08:31N 33°56' W 008°22'1413.2
2015-Jul-06 07:26N 34°06' W 008°10'1513.1
2015-Jul-06 06:15N 34°17' W 007°57'1312.6
2015-Jul-06 05:12N 34°26' W 007°45'14612.2
2015-Jul-05 17:14N 35°59' W 005°28'7 9.9
2015-Jul-05 16:33N 36°05' W 005°24'4 0.5
2015-Jul-05 08:19N 36°09' W 005°26'2 0.1
2015-Jul-04 17:33N 36°08' W 005°24'7 6.9
2015-Jul-04 16:33N 36°03' W 005°18'10 9.9
2015-Jul-04 15:32N 36°04' W 005°05'9 2.9
2015-Jul-04 12:33N 36°01' W 005°15'1111.4
2015-Jul-04 11:33N 35°57' W 005°28'  
Track history (hours):
 
Tides and Currents Weather Stations Pressure Air Temp Water Temp Dewpoint Dewpoint Depression Visibility Wind Speed Wind Dir Waves Ship Positions

Cap Bonavista

Last reported at 2015-Jul-13 17:33 UTC. Time now 2015-Aug-04 09:38 UTC.
Position N 09°23' W 013°44'.
Warning: this ship's position is 21 days out of date.

Length 200 m; beam 29.8 m; draft 11.6 m.

Type: Cargo ship. MMSI: 636090647.

Date/timePositionNaut miles runAvg speedWind from/ knotsBaromVisibWave heightAir tempDewpointWater temp
2015-Jul-13 17:33N 09°23' W 013°44'8 7.8
2015-Jul-13 16:33N 09°30' W 013°44'0 0.3
2015-Jul-13 15:32N 09°31' W 013°43'0 0.0
2015-Jul-13 14:32N 09°31' W 013°43'0 0.0
2015-Jul-13 13:32N 09°31' W 013°43'0 0.0
2015-Jul-13 12:32N 09°31' W 013°43'0 0.0
2015-Jul-13 11:32N 09°31' W 013°43'0 0.0
2015-Jul-13 10:32N 09°31' W 013°43'0 0.0
2015-Jul-13 09:32N 09°31' W 013°43'0 0.0
2015-Jul-13 08:32N 09°31' W 013°43'0 0.0
2015-Jul-13 07:32N 09°31' W 013°43'0 0.0
2015-Jul-13 06:32N 09°31' W 013°43'0 0.0
2015-Jul-13 05:32N 09°31' W 013°43'0 0.0
2015-Jul-13 04:32N 09°31' W 013°43'0 0.0
2015-Jul-13 03:32N 09°31' W 013°43'0 0.0
2015-Jul-13 02:32N 09°31' W 013°43'0 0.0
2015-Jul-13 01:32N 09°31' W 013°43'0 0.0
2015-Jul-13 00:32N 09°31' W 013°43'0 0.0
2015-Jul-12 23:32N 09°31' W 013°43'0 0.0
2015-Jul-12 22:08N 09°31' W 013°43'0 0.0
2015-Jul-12 21:26N 09°31' W 013°43'0 0.0
2015-Jul-12 20:23N 09°31' W 013°43'0 0.0
2015-Jul-12 19:23N 09°31' W 013°43'0 0.0
2015-Jul-12 18:32N 09°31' W 013°43'0 0.0
2015-Jul-12 17:32N 09°31' W 013°43'0 0.0
2015-Jul-12 16:32N 09°31' W 013°43'4 4.5
2015-Jul-12 15:33N 09°26' W 013°43'6 6.0
2015-Jul-12 14:31N 09°20' W 013°45'0 0.0
2015-Jul-12 13:31N 09°20' W 013°45'0 0.1
2015-Jul-12 11:31N 09°20' W 013°45'0 0.0
2015-Jul-12 10:34N 09°20' W 013°45'0 0.0
2015-Jul-12 09:25N 09°20' W 013°45'0 0.0
2015-Jul-12 08:31N 09°20' W 013°45'0 0.1
2015-Jul-12 07:31N 09°20' W 013°45'2 2.2
2015-Jul-12 06:33N 09°22' W 013°44'2 2.0
2015-Jul-12 05:33N 09°24' W 013°44'  
2015-Jul-07 22:22N 26°41' W 014°38'1618.2
2015-Jul-07 21:29N 26°54' W 014°28'1718.1
2015-Jul-07 20:33N 27°08' W 014°18'1818.0
2015-Jul-07 19:33N 27°23' W 014°06'1818.2
2015-Jul-07 18:33N 27°39' W 013°56'1818.2
2015-Jul-07 17:33N 27°55' W 013°47'1817.7
2015-Jul-07 16:33N 28°12' W 013°39'2417.6
2015-Jul-07 15:11N 28°34' W 013°28'1013.3
2015-Jul-07 14:26N 28°43' W 013°23'1213.5
2015-Jul-07 13:33N 28°53' W 013°17'1413.6
2015-Jul-07 12:30N 29°06' W 013°10'1313.5
2015-Jul-07 11:32N 29°18' W 013°03'2713.4
2015-Jul-07 09:33N 29°39' W 012°44'1313.4
2015-Jul-07 08:34N 29°49' W 012°35'1413.5
2015-Jul-07 07:33N 29°60' W 012°25'1918.6
2015-Jul-07 06:33N 30°14' W 012°11'1313.2
2015-Jul-07 05:31N 30°25' W 012°02'1413.7
2015-Jul-07 04:32N 30°36' W 011°52'1313.6
2015-Jul-07 03:33N 30°46' W 011°42'1413.7
2015-Jul-07 02:34N 30°57' W 011°32'1313.3
2015-Jul-07 01:33N 31°07' W 011°23'1313.0
2015-Jul-07 00:33N 31°17' W 011°13'1313.2
2015-Jul-06 23:33N 31°28' W 011°04'1413.6
2015-Jul-06 22:33N 31°38' W 010°54'1413.2
2015-Jul-06 21:32N 31°49' W 010°44'1313.3
2015-Jul-06 20:32N 31°59' W 010°34'1313.5
2015-Jul-06 19:33N 32°10' W 010°24'1313.6
2015-Jul-06 18:33N 32°20' W 010°14'1313.2
2015-Jul-06 17:34N 32°30' W 010°05'1313.2
2015-Jul-06 16:33N 32°40' W 009°54'1313.0
2015-Jul-06 15:33N 32°49' W 009°43'1313.1
2015-Jul-06 14:33N 32°58' W 009°32'1413.6
2015-Jul-06 13:33N 33°08' W 009°20'1413.6
2015-Jul-06 12:33N 33°18' W 009°09'1413.5
2015-Jul-06 11:32N 33°27' W 008°57'1313.5
2015-Jul-06 10:33N 33°37' W 008°46'2713.4
2015-Jul-06 08:31N 33°56' W 008°22'1413.2
2015-Jul-06 07:26N 34°06' W 008°10'1513.1
2015-Jul-06 06:15N 34°17' W 007°57'1312.6
2015-Jul-06 05:12N 34°26' W 007°45'14612.2
2015-Jul-05 17:14N 35°59' W 005°28'7 9.9
2015-Jul-05 16:33N 36°05' W 005°24'4 0.5
2015-Jul-05 08:19N 36°09' W 005°26'2 0.1
2015-Jul-04 17:33N 36°08' W 005°24'7 6.9
2015-Jul-04 16:33N 36°03' W 005°18'10 9.9
2015-Jul-04 15:32N 36°04' W 005°05'9 2.9
2015-Jul-04 12:33N 36°01' W 005°15'1111.4
2015-Jul-04 11:33N 35°57' W 005°28'  

Dump ship's entire track history